createdAt,value
2019-06-26T00:01:29.889Z,56.74
2019-06-26T00:05:31.523Z,56.86
2019-06-26T00:09:35.519Z,56.86
2019-06-26T00:13:36.416Z,56.84
2019-06-26T00:17:37.342Z,56.83
2019-06-26T00:21:38.277Z,56.86
2019-06-26T00:25:39.217Z,56.99
2019-06-26T00:29:40.122Z,56.82
2019-06-26T00:33:41.052Z,56.76
2019-06-26T00:37:42.085Z,56.77
2019-06-26T00:41:43.016Z,56.70
2019-06-26T00:45:43.954Z,56.67
2019-06-26T00:49:44.854Z,56.78
2019-06-26T00:53:45.795Z,56.74
2019-06-26T00:57:46.742Z,56.87
2019-06-26T01:01:49.670Z,57.05
2019-06-26T01:05:50.709Z,57.30
2019-06-26T01:09:51.602Z,57.51
2019-06-26T01:13:58.161Z,57.62
2019-06-26T01:17:55.385Z,57.53
2019-06-26T01:21:56.423Z,57.77
2019-06-26T01:25:57.334Z,57.82
2019-06-26T01:30:03.198Z,57.89
2019-06-26T01:34:04.443Z,57.98
2019-06-26T01:38:05.372Z,57.85
2019-06-26T01:42:06.347Z,58.09
2019-06-26T01:46:07.447Z,57.89
2019-06-26T01:50:09.150Z,57.74
2019-06-26T01:54:10.090Z,57.66
2019-06-26T01:58:11.030Z,57.44
2019-06-26T02:02:12.000Z,57.00
2019-06-26T02:06:12.898Z,56.74
2019-06-26T02:10:14.539Z,56.92
2019-06-26T02:14:29.947Z,56.70
2019-06-26T02:18:35.038Z,56.61
2019-06-26T02:22:36.036Z,56.61
2019-06-26T02:26:36.929Z,56.71
2019-06-26T02:30:37.868Z,56.71
2019-06-26T02:34:38.815Z,56.67
2019-06-26T02:38:39.805Z,56.66
2019-06-26T02:42:42.643Z,56.71
2019-06-26T02:46:43.550Z,56.59
2019-06-26T02:50:44.471Z,56.58
2019-06-26T02:54:45.423Z,56.41
2019-06-26T02:58:46.364Z,56.69
2019-06-26T03:02:47.340Z,56.57
2019-06-26T03:06:48.292Z,56.81
2019-06-26T03:10:49.269Z,56.98
2019-06-26T03:14:50.206Z,56.80
2019-06-26T03:18:51.191Z,56.64
2019-06-26T03:22:52.091Z,56.85
2019-06-26T03:26:53.028Z,56.90
2019-06-26T03:30:53.965Z,57.19
2019-06-26T03:34:54.901Z,57.48
2019-06-26T03:38:55.845Z,57.45
2019-06-26T03:42:56.801Z,57.63
2019-06-26T03:46:57.752Z,57.49
2019-06-26T03:51:00.594Z,57.58
2019-06-26T03:55:03.772Z,57.84
2019-06-26T03:59:04.712Z,57.90
2019-06-26T04:03:05.643Z,57.67
2019-06-26T04:07:06.577Z,57.49
2019-06-26T04:11:09.621Z,57.55
2019-06-26T04:15:10.750Z,57.94
2019-06-26T04:19:11.699Z,57.76
2019-06-26T04:23:12.590Z,57.79
2019-06-26T04:27:13.521Z,57.86
2019-06-26T04:31:14.555Z,58.03
2019-06-26T04:35:17.597Z,57.84
2019-06-26T04:39:20.580Z,58.26
2019-06-26T04:43:21.316Z,58.33
2019-06-26T04:47:24.254Z,58.22
2019-06-26T04:51:25.203Z,58.32
2019-06-26T04:55:27.682Z,58.44
2019-06-26T04:59:30.643Z,58.21
2019-06-26T05:03:31.449Z,58.22
2019-06-26T05:07:32.387Z,57.85
2019-06-26T05:11:33.414Z,57.45
2019-06-26T05:15:36.271Z,57.38
2019-06-26T05:19:37.164Z,57.02
2019-06-26T05:23:38.107Z,56.27
2019-06-26T05:27:39.362Z,55.47
2019-06-26T05:31:40.285Z,54.98
2019-06-26T05:35:41.219Z,54.52
2019-06-26T05:39:42.117Z,54.38
2019-06-26T05:43:46.139Z,54.17
2019-06-26T05:47:47.234Z,54.22
2019-06-26T05:51:48.148Z,53.50
2019-06-26T05:55:54.062Z,52.71
2019-06-26T05:59:54.952Z,52.57
2019-06-26T06:03:57.269Z,51.90
2019-06-26T06:07:58.218Z,51.91
2019-06-26T06:11:59.145Z,51.46
2019-06-26T06:16:00.090Z,50.33
2019-06-26T06:20:01.233Z,50.23
2019-06-26T06:24:03.819Z,50.24
2019-06-26T06:28:04.745Z,50.21
2019-06-26T06:32:05.674Z,50.23
2019-06-26T06:36:09.646Z,49.91
2019-06-26T06:40:11.454Z,49.49
2019-06-26T06:44:13.150Z,49.10
2019-06-26T06:48:14.936Z,48.44
2019-06-26T06:52:17.484Z,48.43
2019-06-26T06:56:18.413Z,48.25
2019-06-26T07:00:19.645Z,47.88
2019-06-26T07:04:20.674Z,47.71
2019-06-26T07:08:21.602Z,47.30
2019-06-26T07:12:22.846Z,46.66
2019-06-26T07:16:23.798Z,46.61
2019-06-26T07:20:27.574Z,46.61
2019-06-26T07:24:28.528Z,45.48
2019-06-26T07:28:32.561Z,45.37
2019-06-26T07:32:33.501Z,44.88
2019-06-26T07:36:34.636Z,45.35
2019-06-26T07:40:35.527Z,44.29
2019-06-26T07:44:36.463Z,43.54
2019-06-26T07:48:39.321Z,43.38
2019-06-26T07:52:40.353Z,42.95
2019-06-26T07:56:41.288Z,42.11
2019-06-26T08:00:42.229Z,42.54
2019-06-26T08:04:43.150Z,42.71
2019-06-26T08:08:45.447Z,42.33
2019-06-26T08:12:46.415Z,41.53
2019-06-26T08:16:47.349Z,41.52
2019-06-26T08:21:00.749Z,41.75
2019-06-26T08:24:51.084Z,40.41
2019-06-26T08:28:52.013Z,41.90
2019-06-26T08:32:52.935Z,42.11
2019-06-26T08:36:53.870Z,41.08
2019-06-26T08:40:54.861Z,40.46
2019-06-26T08:44:55.787Z,40.17
2019-06-26T08:48:56.814Z,39.45
2019-06-26T08:52:57.750Z,39.54
2019-06-26T08:56:58.691Z,39.90
2019-06-26T09:01:01.562Z,39.55
2019-06-26T09:05:04.615Z,39.47
2019-06-26T09:09:06.397Z,39.66
2019-06-26T09:13:07.326Z,39.75
2019-06-26T09:17:10.211Z,39.80
2019-06-26T09:21:11.143Z,39.50
2019-06-26T09:25:21.739Z,39.50
2019-06-26T09:29:15.079Z,39.19
2019-06-26T09:33:16.015Z,39.26
2019-06-26T09:37:18.894Z,39.65
2019-06-26T09:41:19.877Z,39.52
2019-06-26T09:45:20.818Z,39.24
2019-06-26T09:49:21.722Z,39.78
2019-06-26T09:53:22.663Z,39.14
2019-06-26T09:57:26.588Z,39.58
2019-06-26T10:01:27.515Z,40.04
2019-06-26T10:05:28.448Z,39.17
2019-06-26T10:09:29.441Z,38.70
2019-06-26T10:13:30.337Z,38.85
2019-06-26T10:17:32.525Z,39.22
2019-06-26T10:21:33.641Z,39.14
2019-06-26T10:25:36.148Z,39.50
2019-06-26T10:29:37.072Z,39.61
2019-06-26T10:33:38.078Z,39.30
2019-06-26T10:37:39.709Z,39.65
2019-06-26T10:41:40.836Z,39.27
2019-06-26T10:45:41.781Z,39.56
2019-06-26T10:49:42.740Z,38.70
2019-06-26T10:53:43.678Z,38.45
2019-06-26T10:57:44.631Z,38.06
2019-06-26T11:01:45.578Z,37.42
2019-06-26T11:05:46.483Z,38.38
2019-06-26T11:09:47.420Z,37.67
2019-06-26T11:13:48.339Z,37.65
2019-06-26T11:17:49.271Z,36.62
2019-06-26T11:21:50.208Z,36.80
2019-06-26T11:25:51.139Z,36.75
2019-06-26T11:29:52.070Z,36.26
2019-06-26T11:33:53.083Z,35.80
2019-06-26T11:37:54.022Z,35.85
2019-06-26T11:41:54.947Z,34.90
2019-06-26T11:45:56.004Z,34.70
2019-06-26T11:50:00.097Z,32.05
2019-06-26T11:53:59.750Z,34.51
2019-06-26T11:58:00.784Z,33.67
2019-06-26T12:02:01.714Z,33.70
2019-06-26T12:06:17.745Z,33.46
2019-06-26T12:10:07.951Z,31.60
2019-06-26T12:14:09.001Z,32.17
2019-06-26T12:18:09.950Z,31.74
2019-06-26T12:22:10.910Z,31.59
2019-06-26T12:26:11.846Z,31.58
2019-06-26T12:30:13.266Z,32.15
2019-06-26T12:34:14.205Z,32.09
2019-06-26T12:38:15.132Z,31.55
2019-06-26T12:42:16.082Z,32.19
2019-06-26T12:46:18.276Z,31.92
2019-06-26T12:50:34.767Z,32.34
2019-06-26T12:54:27.311Z,31.75
2019-06-26T12:58:29.108Z,31.70
2019-06-26T13:02:30.181Z,32.10
2019-06-26T13:06:31.120Z,32.16
2019-06-26T13:10:39.258Z,32.12
2019-06-26T13:14:34.863Z,31.68
2019-06-26T13:18:36.110Z,31.32
2019-06-26T13:22:37.131Z,32.23
2019-06-26T13:26:38.076Z,32.79
2019-06-26T13:30:39.710Z,32.88
2019-06-26T13:34:40.614Z,33.07
2019-06-26T13:38:41.545Z,32.93
2019-06-26T13:42:42.479Z,32.66
2019-06-26T13:46:43.478Z,32.99
2019-06-26T13:50:44.469Z,32.80
2019-06-26T13:54:45.354Z,32.43
2019-06-26T13:58:46.304Z,32.21
2019-06-26T14:02:47.206Z,32.37
2019-06-26T14:06:48.163Z,32.20
2019-06-26T14:10:49.090Z,32.35
2019-06-26T14:14:57.396Z,32.70
2019-06-26T14:18:53.127Z,33.46
2019-06-26T14:22:54.068Z,33.27
2019-06-26T14:26:54.993Z,34.30
2019-06-26T14:30:55.925Z,34.28
2019-06-26T14:34:56.866Z,34.39
2019-06-26T14:38:57.758Z,33.97
2019-06-26T14:42:58.699Z,34.40
2019-06-26T14:46:59.622Z,35.02
2019-06-26T14:51:00.563Z,35.20
2019-06-26T14:55:01.589Z,34.53
2019-06-26T14:59:02.778Z,34.72
2019-06-26T15:03:03.727Z,34.61
2019-06-26T15:07:04.777Z,34.30
2019-06-26T15:11:05.730Z,34.31
2019-06-26T15:15:07.850Z,34.24
2019-06-26T15:19:08.903Z,34.09
2019-06-26T15:23:09.940Z,33.93
2019-06-26T15:27:10.873Z,33.78
2019-06-26T15:31:11.901Z,33.82
2019-06-26T15:35:13.764Z,34.17
2019-06-26T15:39:14.674Z,34.06
2019-06-26T15:43:15.707Z,34.27
2019-06-26T15:47:16.634Z,34.32
2019-06-26T15:51:17.571Z,34.37
2019-06-26T15:55:18.517Z,34.53
2019-06-26T15:59:19.550Z,34.89
2019-06-26T16:03:20.504Z,35.46
2019-06-26T16:07:21.445Z,35.46
2019-06-26T16:11:22.381Z,35.99
2019-06-26T16:15:23.302Z,36.13
2019-06-26T16:19:25.552Z,36.30
2019-06-26T16:23:26.443Z,36.78
2019-06-26T16:27:27.380Z,37.08
2019-06-26T16:31:28.325Z,36.83
2019-06-26T16:35:29.265Z,36.83
2019-06-26T16:39:30.193Z,36.60
2019-06-26T16:43:31.100Z,36.89
2019-06-26T16:47:32.030Z,36.95
2019-06-26T16:51:32.977Z,37.10
2019-06-26T16:55:33.916Z,37.06
2019-06-26T16:59:34.856Z,36.85
2019-06-26T17:03:35.753Z,37.18
2019-06-26T17:07:36.680Z,37.26
2019-06-26T17:11:37.852Z,37.77
2019-06-26T17:15:38.773Z,37.80
2019-06-26T17:19:39.808Z,38.35
2019-06-26T17:23:40.803Z,38.62
2019-06-26T17:27:41.841Z,39.13
2019-06-26T17:31:42.785Z,39.34
2019-06-26T17:35:43.719Z,39.91
2019-06-26T17:39:44.665Z,39.77
2019-06-26T17:43:45.571Z,40.00
2019-06-26T17:47:46.507Z,40.54
2019-06-26T17:51:47.443Z,41.10
2019-06-26T17:55:48.385Z,41.41
2019-06-26T17:59:49.339Z,41.83
2019-06-26T18:03:50.271Z,42.18
2019-06-26T18:07:51.183Z,41.61
2019-06-26T18:11:52.126Z,41.29
2019-06-26T18:15:53.061Z,41.51
2019-06-26T18:19:54.085Z,41.75
2019-06-26T18:23:55.013Z,41.94
2019-06-26T18:27:56.301Z,41.86
2019-06-26T18:31:57.393Z,41.58
2019-06-26T18:35:58.431Z,41.43
2019-06-26T18:39:59.378Z,41.56
2019-06-26T18:44:00.304Z,41.85
2019-06-26T18:48:01.204Z,42.02
2019-06-26T18:52:02.240Z,41.94
2019-06-26T18:56:03.451Z,41.28
2019-06-26T19:00:05.930Z,40.81
2019-06-26T19:04:06.972Z,40.94
2019-06-26T19:08:07.876Z,41.42
2019-06-26T19:12:08.803Z,41.78
2019-06-26T19:16:09.742Z,41.31
2019-06-26T19:20:11.985Z,41.57
2019-06-26T19:24:12.921Z,41.19
2019-06-26T19:28:13.818Z,41.06
2019-06-26T19:32:14.746Z,41.01
2019-06-26T19:36:15.677Z,41.33
2019-06-26T19:40:16.819Z,41.69
2019-06-26T19:44:17.751Z,41.86
2019-06-26T19:48:18.661Z,42.26
2019-06-26T19:52:19.649Z,42.64
2019-06-26T19:56:20.836Z,43.47
2019-06-26T20:00:21.984Z,43.71
2019-06-26T20:04:22.919Z,44.16
2019-06-26T20:08:23.820Z,44.08
2019-06-26T20:12:24.757Z,44.04
2019-06-26T20:16:25.798Z,44.09
2019-06-26T20:20:26.731Z,44.27
2019-06-26T20:24:43.009Z,44.48
2019-06-26T20:28:30.482Z,44.86
2019-06-26T20:32:31.424Z,45.45
2019-06-26T20:36:32.432Z,45.92
2019-06-26T20:40:33.464Z,46.35
2019-06-26T20:44:34.437Z,46.76
2019-06-26T20:48:35.332Z,47.45
2019-06-26T20:52:36.497Z,47.46
2019-06-26T20:56:37.439Z,47.56
2019-06-26T21:00:38.383Z,47.26
2019-06-26T21:04:39.297Z,47.36
2019-06-26T21:08:40.228Z,48.17
2019-06-26T21:12:41.188Z,48.78
2019-06-26T21:16:42.125Z,49.38
2019-06-26T21:20:43.051Z,50.58
2019-06-26T21:24:44.019Z,50.75
2019-06-26T21:28:44.914Z,51.04
2019-06-26T21:32:45.847Z,51.24
2019-06-26T21:36:46.787Z,51.40
2019-06-26T21:40:47.727Z,51.94
2019-06-26T21:44:48.668Z,52.35
2019-06-26T21:48:49.563Z,52.53
2019-06-26T21:52:50.528Z,52.67
2019-06-26T21:56:51.622Z,53.27
2019-06-26T22:00:52.768Z,53.72
2019-06-26T22:04:53.702Z,53.84
2019-06-26T22:08:54.629Z,54.00
2019-06-26T22:12:55.547Z,54.22
2019-06-26T22:16:56.485Z,54.48
2019-06-26T22:20:57.422Z,54.99
2019-06-26T22:24:58.369Z,55.46
2019-06-26T22:28:59.275Z,55.53
2019-06-26T22:33:00.203Z,55.64
2019-06-26T22:37:01.133Z,55.92
2019-06-26T22:41:02.088Z,55.93
2019-06-26T22:45:04.429Z,56.20
2019-06-26T22:49:05.379Z,56.34
2019-06-26T22:53:06.323Z,56.63
2019-06-26T22:57:07.300Z,56.71
2019-06-26T23:01:08.337Z,56.65
2019-06-26T23:05:09.618Z,57.12
2019-06-26T23:09:10.553Z,57.16
2019-06-26T23:13:11.463Z,57.16
2019-06-26T23:17:12.400Z,57.25
2019-06-26T23:21:13.339Z,57.40
2019-06-26T23:25:14.374Z,57.45
2019-06-26T23:29:15.305Z,57.92
2019-06-26T23:33:16.202Z,58.01
2019-06-26T23:37:17.132Z,57.78
2019-06-26T23:41:18.216Z,57.75
2019-06-26T23:45:19.153Z,57.51
2019-06-26T23:49:20.075Z,57.54
2019-06-26T23:53:21.027Z,57.81
2019-06-26T23:57:21.957Z,57.88
